Time;durP1;ratioP1;P1;durP2;ratioP2;P2;SDS_P1;SDS_P2;PMS_P1;PMS_P2;Temp;Humidity;BMP_temperature;BMP_pressure;BME280_temperature;BME280_humidity;BME280_pressure;Samples;Min_cycle;Max_cycle;Signal;HPM_P1;HPM_P2
2023/05/03 00:01:07;;;;;;;10.65;4.47;;;;;;;;;;7368389;19;20160;-73
2023/05/03 00:03:33;;;;;;;11.77;4.80;;;;;;;;;;7368314;19;20476;-73
2023/05/03 00:06:09;;;;;;;10.98;4.80;;;;;;;;;;7368593;19;20017;-72
2023/05/03 00:08:34;;;;;;;9.18;4.70;;;;;;;;;;7368724;19;20013;-72
2023/05/03 00:10:59;;;;;;;6.85;4.20;;;;;;;;;;7369190;19;20011;-73
2023/05/03 00:13:25;;;;;;;12.75;4.07;;;;;;;;;;7389189;19;20029;-72
2023/05/03 00:15:50;;;;;;;10.48;4.20;;;;;;;;;;7368087;19;20007;-72
2023/05/03 00:18:15;;;;;;;12.95;4.82;;;;;;;;;;7366559;19;20023;-72
2023/05/03 00:20:41;;;;;;;10.73;4.13;;;;;;;;;;7366029;19;20363;-72
2023/05/03 00:23:07;;;;;;;10.80;4.47;;;;;;;;;;7368027;19;20003;-73
2023/05/03 00:25:34;;;;;;;9.40;4.90;;;;;;;;;;7394295;19;20014;-72
2023/05/03 00:27:59;;;;;;;13.30;4.85;;;;;;;;;;7370964;19;20006;-72
2023/05/03 00:30:24;;;;;;;10.32;4.38;;;;;;;;;;7374683;19;20089;-72
2023/05/03 00:32:50;;;;;;;9.05;4.65;;;;;;;;;;7374539;19;20381;-73
2023/05/03 00:35:16;;;;;;;10.00;4.38;;;;;;;;;;7373243;19;19999;-72
2023/05/03 00:37:41;;;;;;;12.05;4.68;;;;;;;;;;7394353;19;20019;-72
2023/05/03 00:40:07;;;;;;;14.90;4.80;;;;;;;;;;7375047;19;20079;-73
2023/05/03 00:42:35;;;;;;;12.05;4.47;;;;;;;;;;7376795;19;20003;-72
2023/05/03 00:45:03;;;;;;;16.23;5.10;;;;;;;;;;7381041;19;20043;-72
2023/05/03 00:47:29;;;;;;;19.58;5.50;;;;;;;;;;7384944;19;20077;-73
2023/05/03 00:49:55;;;;;;;8.80;3.97;;;;;;;;;;7402857;19;20002;-73
2023/05/03 00:52:20;;;;;;;11.32;4.90;;;;;;;;;;7392490;19;20014;-72
2023/05/03 00:54:46;;;;;;;10.10;4.78;;;;;;;;;;7374969;19;20031;-72
2023/05/03 00:57:11;;;;;;;10.90;5.00;;;;;;;;;;7373049;19;20035;-72
2023/05/03 00:59:37;;;;;;;9.75;4.53;;;;;;;;;;7376678;19;20036;-73
2023/05/03 01:02:03;;;;;;;12.50;4.95;;;;;;;;;;7376748;19;20052;-74
2023/05/03 01:04:29;;;;;;;11.93;4.47;;;;;;;;;;7398859;19;20549;-73
2023/05/03 01:07:13;;;;;;;8.05;4.53;;;;;;;;;;7373051;19;20070;-73
2023/05/03 01:09:58;;;;;;;13.40;5.32;;;;;;;;;;7374625;19;20460;-72
2023/05/03 01:12:41;;;;;;;14.13;4.28;;;;;;;;;;7375240;19;20002;-72
2023/05/03 01:15:36;;;;;;;13.95;5.15;;;;;;;;;;7373267;19;20003;-72
2023/05/03 01:18:15;;;;;;;17.20;4.45;;;;;;;;;;7369919;19;20027;-72
2023/05/03 01:20:45;;;;;;;13.90;5.30;;;;;;;;;;7373038;19;20013;-72
2023/05/03 01:23:20;;;;;;;11.50;4.60;;;;;;;;;;7375197;19;20003;-73
2023/05/03 01:25:45;;;;;;;14.30;4.53;;;;;;;;;;7396091;19;20058;-72
2023/05/03 01:28:10;;;;;;;10.93;4.32;;;;;;;;;;7370659;19;20810;-72
2023/05/03 01:30:39;;;;;;;11.60;4.90;;;;;;;;;;7375451;19;20031;-73
2023/05/03 01:33:29;;;;;;;12.10;4.75;;;;;;;;;;7374521;19;20010;-73
2023/05/03 01:36:11;;;;;;;8.93;4.90;;;;;;;;;;7374956;19;20017;-73
2023/05/03 01:38:37;;;;;;;13.60;4.80;;;;;;;;;;7373438;19;20317;-72
2023/05/03 01:41:10;;;;;;;15.05;5.00;;;;;;;;;;7373968;19;20690;-72
2023/05/03 01:43:36;;;;;;;17.73;4.93;;;;;;;;;;7395792;19;19998;-72
2023/05/03 01:46:02;;;;;;;11.95;5.35;;;;;;;;;;7373586;19;20007;-72
2023/05/03 01:48:27;;;;;;;17.40;5.28;;;;;;;;;;7372253;19;20413;-72
2023/05/03 01:50:52;;;;;;;13.93;5.40;;;;;;;;;;7372022;19;20081;-72
2023/05/03 01:53:18;;;;;;;16.05;4.90;;;;;;;;;;7373683;19;20698;-72
2023/05/03 01:55:44;;;;;;;11.63;5.13;;;;;;;;;;7395463;19;20002;-72
2023/05/03 01:58:09;;;;;;;22.45;5.32;;;;;;;;;;7370348;19;20412;-72
2023/05/03 02:00:34;;;;;;;20.02;4.88;;;;;;;;;;7372285;19;20007;-72
2023/05/03 02:03:00;;;;;;;13.93;4.72;;;;;;;;;;7372676;19;20010;-72
2023/05/03 02:05:25;;;;;;;16.45;5.63;;;;;;;;;;7373376;19;20341;-73
2023/05/03 02:07:50;;;;;;;11.75;5.30;;;;;;;;;;7402190;19;20023;-73
2023/05/03 02:10:16;;;;;;;16.08;4.95;;;;;;;;;;7376104;19;20007;-72
2023/05/03 02:12:43;;;;;;;12.45;4.50;;;;;;;;;;7372330;19;20018;-72
2023/05/03 02:15:09;;;;;;;12.13;5.47;;;;;;;;;;7371322;19;20014;-72
2023/05/03 02:17:34;;;;;;;12.77;4.85;;;;;;;;;;7373608;19;20026;-72
2023/05/03 02:20:00;;;;;;;18.10;5.60;;;;;;;;;;7374149;19;20029;-72
2023/05/03 02:22:25;;;;;;;13.05;5.00;;;;;;;;;;7394075;19;20049;-72
2023/05/03 02:24:50;;;;;;;15.57;5.18;;;;;;;;;;7373235;19;20010;-72
2023/05/03 02:27:16;;;;;;;12.88;5.43;;;;;;;;;;7370019;19;20010;-72
2023/05/03 02:29:41;;;;;;;14.13;5.05;;;;;;;;;;7371760;19;20031;-72
2023/05/03 02:32:07;;;;;;;14.98;4.80;;;;;;;;;;7372156;19;20276;-72
2023/05/03 02:34:32;;;;;;;10.52;5.00;;;;;;;;;;7393166;19;20003;-72
2023/05/03 02:36:58;;;;;;;13.73;4.45;;;;;;;;;;7366628;19;20134;-72
2023/05/03 02:39:23;;;;;;;11.93;4.85;;;;;;;;;;7372986;19;20049;-71
2023/05/03 02:41:48;;;;;;;11.55;5.15;;;;;;;;;;7370079;19;20007;-72
2023/05/03 02:44:13;;;;;;;7.68;4.28;;;;;;;;;;7370698;19;20539;-71
2023/05/03 02:46:40;;;;;;;11.75;4.93;;;;;;;;;;7391867;19;20035;-72
2023/05/03 02:49:06;;;;;;;16.55;4.80;;;;;;;;;;7380403;19;20010;-71
2023/05/03 02:51:32;;;;;;;13.90;4.63;;;;;;;;;;7373850;19;20024;-72
2023/05/03 02:53:57;;;;;;;7.93;4.30;;;;;;;;;;7370562;19;20010;-71
2023/05/03 02:56:25;;;;;;;13.75;4.47;;;;;;;;;;7370901;19;20476;-72
2023/05/03 02:58:50;;;;;;;11.23;4.38;;;;;;;;;;7394180;19;20024;-71
2023/05/03 03:01:16;;;;;;;10.48;4.70;;;;;;;;;;7371538;19;20018;-72
2023/05/03 03:03:41;;;;;;;9.90;4.78;;;;;;;;;;7370979;19;20013;-72
2023/05/03 03:06:06;;;;;;;9.07;4.53;;;;;;;;;;7374276;19;20022;-71
2023/05/03 03:08:32;;;;;;;11.32;4.57;;;;;;;;;;7375977;19;20792;-72
2023/05/03 03:10:57;;;;;;;17.90;4.00;;;;;;;;;;7377316;19;19998;-72
2023/05/03 03:13:23;;;;;;;9.75;5.00;;;;;;;;;;7394663;19;20007;-71
2023/05/03 03:15:48;;;;;;;12.13;4.38;;;;;;;;;;7370204;19;20012;-71
2023/05/03 03:18:13;;;;;;;17.13;5.50;;;;;;;;;;7368583;19;20014;-71
2023/05/03 03:20:38;;;;;;;14.10;4.60;;;;;;;;;;7369394;19;20011;-72
2023/05/03 03:23:04;;;;;;;9.75;4.65;;;;;;;;;;7370041;19;20027;-73
2023/05/03 03:25:29;;;;;;;14.77;4.57;;;;;;;;;;7403462;19;20022;-73
2023/05/03 03:27:55;;;;;;;9.85;4.68;;;;;;;;;;7373668;19;20682;-72
2023/05/03 03:30:20;;;;;;;9.80;4.47;;;;;;;;;;7368816;19;20010;-71
2023/05/03 03:32:45;;;;;;;11.85;4.25;;;;;;;;;;7370655;19;20003;-72
2023/05/03 03:35:11;;;;;;;9.90;4.43;;;;;;;;;;7367360;19;20002;-72
2023/05/03 03:37:37;;;;;;;12.00;5.03;;;;;;;;;;7389742;19;20615;-72
2023/05/03 03:40:04;;;;;;;11.35;5.03;;;;;;;;;;7368386;19;20002;-73
2023/05/03 03:42:29;;;;;;;11.90;5.07;;;;;;;;;;7369931;19;20034;-73
2023/05/03 03:44:55;;;;;;;8.98;4.38;;;;;;;;;;7369943;19;20116;-73
2023/05/03 03:47:20;;;;;;;11.10;4.60;;;;;;;;;;7370196;19;20020;-73
2023/05/03 03:49:46;;;;;;;9.73;5.05;;;;;;;;;;7392263;19;20002;-72
2023/05/03 03:52:11;;;;;;;13.75;4.93;;;;;;;;;;7368761;19;19999;-72
2023/05/03 03:54:36;;;;;;;11.68;4.93;;;;;;;;;;7367339;19;20086;-73
2023/05/03 03:57:02;;;;;;;15.77;5.15;;;;;;;;;;7367935;19;20074;-72
2023/05/03 03:59:28;;;;;;;11.10;4.63;;;;;;;;;;7373235;19;20077;-73
2023/05/03 04:01:53;;;;;;;11.15;4.50;;;;;;;;;;7397382;19;20078;-72
2023/05/03 04:04:19;;;;;;;13.38;4.80;;;;;;;;;;7375819;19;20023;-72
2023/05/03 04:06:44;;;;;;;10.98;5.00;;;;;;;;;;7375118;19;20024;-73
2023/05/03 04:09:09;;;;;;;14.70;5.30;;;;;;;;;;7375841;19;20023;-72
2023/05/03 04:11:35;;;;;;;10.55;4.88;;;;;;;;;;7376611;19;20450;-72
2023/05/03 04:14:01;;;;;;;12.77;5.03;;;;;;;;;;7377204;19;20066;-73
2023/05/03 04:16:26;;;;;;;7.35;4.20;;;;;;;;;;7400407;19;20031;-73
2023/05/03 04:18:51;;;;;;;17.77;5.85;;;;;;;;;;7379087;19;20091;-73
2023/05/03 04:21:18;;;;;;;13.68;5.47;;;;;;;;;;7379153;19;20016;-73
2023/05/03 04:23:44;;;;;;;11.57;4.68;;;;;;;;;;7377991;19;20085;-73
2023/05/03 04:26:10;;;;;;;16.23;5.43;;;;;;;;;;7378930;19;20011;-73
2023/05/03 04:28:37;;;;;;;11.75;4.45;;;;;;;;;;7395975;19;20003;-72
2023/05/03 04:31:03;;;;;;;8.07;4.47;;;;;;;;;;7375000;19;20003;-72
2023/05/03 04:33:31;;;;;;;14.35;5.32;;;;;;;;;;7374690;19;20011;-72
2023/05/03 04:35:56;;;;;;;14.32;4.25;;;;;;;;;;7376304;19;20007;-73
2023/05/03 04:38:22;;;;;;;11.68;4.50;;;;;;;;;;7375058;19;20014;-72
2023/05/03 04:40:47;;;;;;;13.02;4.72;;;;;;;;;;7396588;19;20037;-72
2023/05/03 04:43:13;;;;;;;12.68;4.90;;;;;;;;;;7384405;19;20329;-73
2023/05/03 04:45:39;;;;;;;11.93;4.70;;;;;;;;;;7383133;19;20027;-73
2023/05/03 04:48:04;;;;;;;12.18;4.47;;;;;;;;;;7375596;19;20018;-72
2023/05/03 04:50:32;;;;;;;8.15;4.35;;;;;;;;;;7375394;19;20046;-72
2023/05/03 04:52:58;;;;;;;9.85;4.50;;;;;;;;;;7376036;19;20013;-72
2023/05/03 04:55:23;;;;;;;11.50;4.60;;;;;;;;;;7395718;19;19998;-73
2023/05/03 04:57:49;;;;;;;14.73;4.80;;;;;;;;;;7378422;19;20010;-73
2023/05/03 05:00:15;;;;;;;7.40;4.00;;;;;;;;;;7388461;19;20016;-73
2023/05/03 05:02:40;;;;;;;9.25;4.20;;;;;;;;;;7389287;19;20006;-72
2023/05/03 05:05:06;;;;;;;9.48;4.38;;;;;;;;;;7369617;19;20006;-75
2023/05/03 05:07:33;;;;;;;12.82;4.13;;;;;;;;;;7393072;19;20019;-72
2023/05/03 05:09:58;;;;;;;8.40;4.13;;;;;;;;;;7345464;19;20528;-73
2023/05/03 05:12:24;;;;;;;11.23;4.05;;;;;;;;;;7393822;19;20640;-72
2023/05/03 05:14:49;;;;;;;10.10;4.30;;;;;;;;;;7374565;19;20019;-73
2023/05/03 05:17:15;;;;;;;11.75;4.78;;;;;;;;;;7351701;19;20003;-72
2023/05/03 05:19:40;;;;;;;11.30;4.47;;;;;;;;;;7372751;19;20077;-72
2023/05/03 05:22:05;;;;;;;10.55;4.40;;;;;;;;;;7391916;19;20002;-71
2023/05/03 05:24:30;;;;;;;8.63;4.10;;;;;;;;;;7375555;19;20021;-73
2023/05/03 05:26:56;;;;;;;12.15;4.05;;;;;;;;;;7372107;19;20010;-71
2023/05/03 05:29:21;;;;;;;7.35;3.60;;;;;;;;;;7372816;19;20367;-75
2023/05/03 05:31:47;;;;;;;9.77;4.07;;;;;;;;;;7370071;19;20480;-74
2023/05/03 05:34:12;;;;;;;10.70;4.15;;;;;;;;;;7391804;19;20378;-74
2023/05/03 05:36:37;;;;;;;8.55;3.75;;;;;;;;;;7369622;19;20010;-74
2023/05/03 05:39:03;;;;;;;9.65;4.22;;;;;;;;;;7371827;19;20031;-71
2023/05/03 05:41:28;;;;;;;11.75;4.05;;;;;;;;;;7372764;19;20002;-71
2023/05/03 05:43:53;;;;;;;7.50;4.38;;;;;;;;;;7370039;19;20379;-72
2023/05/03 05:46:22;;;;;;;9.25;3.80;;;;;;;;;;7393570;19;20066;-71
2023/05/03 05:48:47;;;;;;;8.35;3.70;;;;;;;;;;7369917;19;20007;-73
2023/05/03 05:51:12;;;;;;;8.85;3.88;;;;;;;;;;7372215;19;20130;-72
2023/05/03 05:53:38;;;;;;;9.23;4.60;;;;;;;;;;7369909;19;20015;-71
2023/05/03 05:56:05;;;;;;;9.32;3.83;;;;;;;;;;7371022;19;20010;-71
2023/05/03 05:58:30;;;;;;;11.35;4.18;;;;;;;;;;7371015;19;20461;-70
2023/05/03 06:01:02;;;;;;;7.40;3.25;;;;;;;;;;7392533;19;20002;-70
2023/05/03 06:03:28;;;;;;;8.88;3.25;;;;;;;;;;7370079;19;20010;-71
2023/05/03 06:05:53;;;;;;;8.70;4.40;;;;;;;;;;7371143;19;20396;-71
2023/05/03 06:08:18;;;;;;;11.85;3.72;;;;;;;;;;7374860;19;20619;-72
2023/05/03 06:10:44;;;;;;;11.60;4.72;;;;;;;;;;7371899;19;20018;-71
2023/05/03 06:13:09;;;;;;;5.43;3.00;;;;;;;;;;7392522;19;20020;-72
2023/05/03 06:15:34;;;;;;;8.07;4.40;;;;;;;;;;7370242;19;20003;-72
2023/05/03 06:18:00;;;;;;;4.10;2.50;;;;;;;;;;7368981;19;20007;-73
2023/05/03 06:20:25;;;;;;;9.38;3.45;;;;;;;;;;7369007;19;20017;-72
2023/05/03 06:22:51;;;;;;;7.90;3.70;;;;;;;;;;7367978;19;20070;-70
2023/05/03 06:25:16;;;;;;;8.50;4.53;;;;;;;;;;7391821;19;20003;-69
2023/05/03 06:27:42;;;;;;;9.13;4.25;;;;;;;;;;7366175;19;20011;-67
2023/05/03 06:30:07;;;;;;;10.15;4.03;;;;;;;;;;7368041;19;20032;-69
2023/05/03 06:32:33;;;;;;;9.07;4.25;;;;;;;;;;7369574;19;20017;-67
2023/05/03 06:34:58;;;;;;;10.00;3.50;;;;;;;;;;7367824;19;20014;-69
2023/05/03 06:37:25;;;;;;;7.38;3.83;;;;;;;;;;7367807;19;20022;-69
2023/05/03 06:39:50;;;;;;;8.00;3.58;;;;;;;;;;7390582;19;20001;-69
2023/05/03 06:42:15;;;;;;;9.10;3.90;;;;;;;;;;7368018;19;20070;-69
2023/05/03 06:44:41;;;;;;;7.15;3.97;;;;;;;;;;7369323;19;20067;-73
2023/05/03 06:47:06;;;;;;;7.57;3.58;;;;;;;;;;7366597;19;20399;-74
2023/05/03 06:49:32;;;;;;;6.50;3.67;;;;;;;;;;7369402;19;20018;-72
2023/05/03 06:51:57;;;;;;;8.23;3.00;;;;;;;;;;7389572;19;20002;-70
2023/05/03 06:54:23;;;;;;;7.43;3.05;;;;;;;;;;7367105;19;20014;-70
2023/05/03 06:56:48;;;;;;;9.05;3.60;;;;;;;;;;7366999;19;20110;-72
2023/05/03 06:59:15;;;;;;;10.35;3.70;;;;;;;;;;7367165;19;20006;-73
2023/05/03 07:01:41;;;;;;;10.38;3.40;;;;;;;;;;7368897;19;19999;-72
2023/05/03 07:04:06;;;;;;;9.88;4.45;;;;;;;;;;7388616;19;20031;-73
2023/05/03 07:06:31;;;;;;;7.85;3.65;;;;;;;;;;7367863;19;20014;-73
2023/05/03 07:08:57;;;;;;;7.20;3.65;;;;;;;;;;7367739;19;20053;-70
2023/05/03 07:11:25;;;;;;;8.55;4.05;;;;;;;;;;7368196;19;20031;-68
2023/05/03 07:13:53;;;;;;;6.05;3.05;;;;;;;;;;7366029;19;20011;-68
2023/05/03 07:16:20;;;;;;;7.80;3.47;;;;;;;;;;7389191;19;20002;-69
2023/05/03 07:18:46;;;;;;;8.35;3.70;;;;;;;;;;7367132;19;20034;-68
2023/05/03 07:21:14;;;;;;;9.32;3.80;;;;;;;;;;7369050;19;20115;-68
2023/05/03 07:23:40;;;;;;;6.78;3.88;;;;;;;;;;7367639;19;20018;-68
2023/05/03 07:26:06;;;;;;;13.65;4.20;;;;;;;;;;7367703;19;20018;-68
2023/05/03 07:28:31;;;;;;;8.73;4.13;;;;;;;;;;7366927;19;20033;-68
2023/05/03 07:30:57;;;;;;;9.13;3.88;;;;;;;;;;7390561;19;20011;-68
2023/05/03 07:33:22;;;;;;;5.43;3.10;;;;;;;;;;7363075;19;20148;-68
2023/05/03 07:35:48;;;;;;;7.07;4.15;;;;;;;;;;7368836;19;20019;-67
2023/05/03 07:38:13;;;;;;;9.18;3.88;;;;;;;;;;7372246;19;20046;-68
2023/05/03 07:40:40;;;;;;;8.07;3.75;;;;;;;;;;7370784;19;20007;-68
2023/05/03 07:43:06;;;;;;;6.38;2.95;;;;;;;;;;7395836;19;19999;-69
2023/05/03 07:45:31;;;;;;;9.50;3.33;;;;;;;;;;7370762;19;20044;-68
2023/05/03 07:47:57;;;;;;;9.75;3.70;;;;;;;;;;7372481;19;20002;-68
2023/05/03 07:50:22;;;;;;;8.15;3.78;;;;;;;;;;7370756;19;20013;-68
2023/05/03 07:52:51;;;;;;;9.65;3.90;;;;;;;;;;7370660;19;20043;-68
2023/05/03 07:55:17;;;;;;;14.40;4.05;;;;;;;;;;7389548;19;19994;-69
2023/05/03 07:57:43;;;;;;;9.13;4.28;;;;;;;;;;7367470;19;20092;-69
2023/05/03 08:00:09;;;;;;;6.85;3.58;;;;;;;;;;7369252;19;20002;-69
2023/05/03 08:02:35;;;;;;;5.63;3.30;;;;;;;;;;7369111;19;20010;-69
2023/05/03 08:05:01;;;;;;;8.18;4.25;;;;;;;;;;7369115;19;20102;-69
2023/05/03 08:07:27;;;;;;;8.02;3.47;;;;;;;;;;7364057;19;20101;-71
2023/05/03 08:09:52;;;;;;;8.13;3.92;;;;;;;;;;7387797;19;20331;-71
2023/05/03 08:12:18;;;;;;;7.75;3.92;;;;;;;;;;7365061;19;20003;-71
2023/05/03 08:14:43;;;;;;;6.18;3.45;;;;;;;;;;7368495;19;20074;-71
2023/05/03 08:17:08;;;;;;;10.57;3.78;;;;;;;;;;7367732;19;20010;-71
2023/05/03 08:19:34;;;;;;;10.32;4.35;;;;;;;;;;7368294;19;20036;-71
2023/05/03 08:22:00;;;;;;;9.05;4.03;;;;;;;;;;7387014;19;20465;-71
2023/05/03 08:24:25;;;;;;;8.07;3.58;;;;;;;;;;7367300;19;20013;-71
2023/05/03 08:26:51;;;;;;;14.73;4.05;;;;;;;;;;7367044;19;20030;-71
2023/05/03 08:29:19;;;;;;;9.45;4.45;;;;;;;;;;7367330;19;20502;-71
2023/05/03 08:31:45;;;;;;;6.82;3.65;;;;;;;;;;7367506;19;20036;-71
2023/05/03 08:34:10;;;;;;;7.43;3.88;;;;;;;;;;7388761;19;20021;-71
2023/05/03 08:36:37;;;;;;;5.97;2.83;;;;;;;;;;7366721;19;20082;-71
2023/05/03 08:39:06;;;;;;;8.63;3.65;;;;;;;;;;7366778;19;20010;-71
2023/05/03 08:41:32;;;;;;;9.10;3.67;;;;;;;;;;7367204;19;20039;-71
2023/05/03 08:43:59;;;;;;;6.07;3.28;;;;;;;;;;7366824;19;20032;-72
2023/05/03 08:46:27;;;;;;;9.63;4.20;;;;;;;;;;7375408;19;20391;-72
2023/05/03 08:48:53;;;;;;;9.35;4.10;;;;;;;;;;7396038;19;20024;-73
2023/05/03 08:51:20;;;;;;;10.27;3.60;;;;;;;;;;7373845;19;20037;-72
2023/05/03 08:53:45;;;;;;;6.68;3.72;;;;;;;;;;7377436;19;20010;-71
2023/05/03 08:56:22;;;;;;;7.85;4.30;;;;;;;;;;7385377;19;20115;-68
2023/05/03 08:58:47;;;;;;;7.20;3.75;;;;;;;;;;7381843;19;20036;-68
2023/05/03 09:01:13;;;;;;;7.97;4.25;;;;;;;;;;7398422;19;20006;-68
2023/05/03 09:03:38;;;;;;;8.73;4.05;;;;;;;;;;7374783;19;20014;-68
2023/05/03 09:06:18;;;;;;;8.07;3.75;;;;;;;;;;7373899;19;20469;-68
2023/05/03 09:08:44;;;;;;;7.13;4.43;;;;;;;;;;7373780;19;20010;-68
2023/05/03 09:11:22;;;;;;;12.43;4.80;;;;;;;;;;7377455;19;20076;-67
2023/05/03 09:13:50;;;;;;;8.10;3.42;;;;;;;;;;7407058;19;20018;-70
2023/05/03 09:16:23;;;;;;;13.75;4.22;;;;;;;;;;7404417;19;21422;-68
2023/05/03 09:19:00;;;;;;;7.63;3.70;;;;;;;;;;7372926;19;20040;-71
2023/05/03 09:21:26;;;;;;;7.57;3.72;;;;;;;;;;7371745;19;20006;-69
2023/05/03 09:23:51;;;;;;;10.27;4.15;;;;;;;;;;7369870;19;20089;-69
2023/05/03 09:26:35;;;;;;;13.90;4.57;;;;;;;;;;7392061;19;20015;-74
2023/05/03 09:29:02;;;;;;;6.85;3.67;;;;;;;;;;7372439;19;20007;-70
2023/05/03 09:31:32;;;;;;;8.02;4.35;;;;;;;;;;7373010;19;20038;-72
2023/05/03 09:33:58;;;;;;;7.22;3.53;;;;;;;;;;7373545;19;20003;-68
2023/05/03 09:36:24;;;;;;;8.98;4.35;;;;;;;;;;7371991;19;20022;-69
2023/05/03 09:38:51;;;;;;;8.38;4.15;;;;;;;;;;7371941;19;20010;-66
2023/05/03 09:41:30;;;;;;;11.23;5.35;;;;;;;;;;7392623;19;20010;-72
2023/05/03 09:44:01;;;;;;;8.00;4.00;;;;;;;;;;7372888;19;20350;-66
2023/05/03 09:46:28;;;;;;;8.55;4.65;;;;;;;;;;7369864;19;20006;-59
2023/05/03 09:48:55;;;;;;;7.50;4.35;;;;;;;;;;7373902;19;20017;-67
2023/05/03 09:51:22;;;;;;;12.60;4.55;;;;;;;;;;7374590;19;20006;-67
2023/05/03 09:53:48;;;;;;;9.93;4.40;;;;;;;;;;7372323;19;20023;-62
2023/05/03 09:56:14;;;;;;;8.60;4.30;;;;;;;;;;7394499;19;20097;-62
2023/05/03 09:58:40;;;;;;;6.85;3.90;;;;;;;;;;7371187;19;20006;-63
2023/05/03 10:01:07;;;;;;;11.48;4.18;;;;;;;;;;7375856;19;20006;-63
2023/05/03 10:03:38;;;;;;;7.40;4.45;;;;;;;;;;7366293;19;20014;-66
2023/05/03 10:06:06;;;;;;;7.00;3.92;;;;;;;;;;7368845;19;20010;-65
2023/05/03 10:08:45;;;;;;;9.70;3.85;;;;;;;;;;7367895;19;20014;-66
2023/05/03 10:11:13;;;;;;;8.60;4.25;;;;;;;;;;7391919;19;20445;-65
2023/05/03 10:13:38;;;;;;;10.75;4.28;;;;;;;;;;7367595;19;20406;-66
2023/05/03 10:16:10;;;;;;;9.98;5.00;;;;;;;;;;7368411;19;20021;-66
2023/05/03 10:18:44;;;;;;;9.60;4.50;;;;;;;;;;7368881;19;20101;-65
2023/05/03 10:21:24;;;;;;;7.15;4.05;;;;;;;;;;7367594;19;20017;-67
2023/05/03 10:24:08;;;;;;;8.02;4.13;;;;;;;;;;7366073;19;20007;-66
2023/05/03 10:26:34;;;;;;;9.75;4.35;;;;;;;;;;7368873;19;20011;-66
2023/05/03 10:28:59;;;;;;;8.95;4.60;;;;;;;;;;7390930;19;20013;-65
2023/05/03 10:31:44;;;;;;;8.73;4.93;;;;;;;;;;7368388;19;20006;-66
2023/05/03 10:34:20;;;;;;;8.32;3.97;;;;;;;;;;7367350;19;20082;-66
2023/05/03 10:36:49;;;;;;;8.50;4.50;;;;;;;;;;7368473;19;20014;-66
2023/05/03 10:39:15;;;;;;;11.13;5.07;;;;;;;;;;7369619;19;20025;-66
2023/05/03 10:41:40;;;;;;;9.27;4.97;;;;;;;;;;7369625;19;20011;-66
2023/05/03 10:44:25;;;;;;;9.10;4.68;;;;;;;;;;7390783;19;20349;-66
2023/05/03 10:46:52;;;;;;;5.90;3.03;;;;;;;;;;7366794;19;20010;-66
2023/05/03 10:49:22;;;;;;;7.38;4.22;;;;;;;;;;7365811;19;20045;-66
2023/05/03 10:51:47;;;;;;;8.50;4.35;;;;;;;;;;7385302;19;20037;-67
2023/05/03 10:54:13;;;;;;;10.68;4.80;;;;;;;;;;7367349;19;20552;-65
2023/05/03 10:56:52;;;;;;;7.70;4.13;;;;;;;;;;7367365;19;20020;-66
2023/05/03 10:59:17;;;;;;;11.77;4.78;;;;;;;;;;7388341;19;19998;-66
2023/05/03 11:01:45;;;;;;;9.02;4.60;;;;;;;;;;7366610;19;20002;-66
2023/05/03 11:04:27;;;;;;;8.57;4.57;;;;;;;;;;7365740;19;20540;-66
2023/05/03 11:06:55;;;;;;;10.45;4.78;;;;;;;;;;7366408;19;20014;-66
2023/05/03 11:09:30;;;;;;;8.90;4.40;;;;;;;;;;7364964;19;20062;-66
2023/05/03 11:11:56;;;;;;;10.48;5.15;;;;;;;;;;7367847;19;20073;-60
2023/05/03 11:14:21;;;;;;;8.45;4.30;;;;;;;;;;7371406;19;20410;-65
2023/05/03 11:16:49;;;;;;;8.90;4.93;;;;;;;;;;7386702;19;20026;-64
2023/05/03 11:19:15;;;;;;;10.85;4.55;;;;;;;;;;7365520;19;20021;-62
2023/05/03 11:21:41;;;;;;;7.43;4.50;;;;;;;;;;7369884;19;20003;-60
2023/05/03 11:24:07;;;;;;;10.18;4.57;;;;;;;;;;7369541;19;20010;-64
2023/05/03 11:26:36;;;;;;;9.80;4.80;;;;;;;;;;7368093;19;20014;-61
2023/05/03 11:29:02;;;;;;;8.60;4.20;;;;;;;;;;7391067;19;20487;-65
2023/05/03 11:31:28;;;;;;;8.75;4.30;;;;;;;;;;7370426;19;19999;-64
2023/05/03 11:33:53;;;;;;;6.63;4.03;;;;;;;;;;7369578;19;20014;-65
2023/05/03 11:36:18;;;;;;;8.23;4.18;;;;;;;;;;7370780;19;20039;-65
2023/05/03 11:38:44;;;;;;;15.27;4.90;;;;;;;;;;7370720;19;20006;-62
2023/05/03 11:41:15;;;;;;;8.27;4.80;;;;;;;;;;7393283;19;19998;-62
2023/05/03 11:43:45;;;;;;;8.75;4.47;;;;;;;;;;7371415;19;20361;-62
2023/05/03 11:46:13;;;;;;;13.30;4.50;;;;;;;;;;7371027;19;20070;-64
2023/05/03 11:48:38;;;;;;;7.95;4.20;;;;;;;;;;7372077;19;19999;-66
2023/05/03 11:51:10;;;;;;;10.70;4.35;;;;;;;;;;7371539;19;20002;-62
2023/05/03 11:53:38;;;;;;;7.28;4.57;;;;;;;;;;7370061;19;20006;-61
2023/05/03 11:56:06;;;;;;;8.02;5.20;;;;;;;;;;7391248;19;20002;-65
2023/05/03 11:58:32;;;;;;;7.93;4.70;;;;;;;;;;7368796;19;20042;-62
2023/05/03 12:00:57;;;;;;;10.45;4.25;;;;;;;;;;7369558;19;20020;-62
2023/05/03 12:03:31;;;;;;;10.15;4.70;;;;;;;;;;7369789;19;20007;-62
2023/05/03 12:05:57;;;;;;;9.30;4.60;;;;;;;;;;7369409;19;20673;-61
2023/05/03 12:08:30;;;;;;;8.40;4.38;;;;;;;;;;7365612;19;20025;-60
2023/05/03 12:10:56;;;;;;;8.80;4.10;;;;;;;;;;7392553;19;20002;-69
2023/05/03 12:13:35;;;;;;;7.93;4.72;;;;;;;;;;7369551;19;20497;-70
2023/05/03 12:16:03;;;;;;;9.63;4.57;;;;;;;;;;7371313;19;20006;-71
2023/05/03 12:18:51;;;;;;;9.25;4.85;;;;;;;;;;7363386;19;20010;-70
2023/05/03 12:21:21;;;;;;;8.50;4.30;;;;;;;;;;7372970;19;20434;-70
2023/05/03 12:23:48;;;;;;;11.27;3.95;;;;;;;;;;7374207;19;20013;-70
2023/05/03 12:26:14;;;;;;;10.05;4.07;;;;;;;;;;7397522;19;20014;-70
2023/05/03 12:28:40;;;;;;;9.45;3.60;;;;;;;;;;7373733;19;20103;-70
2023/05/03 12:31:05;;;;;;;6.18;2.90;;;;;;;;;;7374893;19;20006;-70
2023/05/03 12:33:31;;;;;;;8.43;4.60;;;;;;;;;;7373224;19;20015;-70
2023/05/03 12:35:57;;;;;;;7.95;4.28;;;;;;;;;;7376102;19;20014;-70
2023/05/03 12:38:22;;;;;;;8.00;3.97;;;;;;;;;;7376476;19;20353;-71
2023/05/03 12:40:47;;;;;;;12.32;3.90;;;;;;;;;;7397306;19;20003;-70
2023/05/03 12:43:13;;;;;;;9.85;4.25;;;;;;;;;;7375787;19;20512;-70
2023/05/03 12:45:39;;;;;;;5.85;3.25;;;;;;;;;;7375581;19;20068;-70
2023/05/03 12:48:04;;;;;;;8.25;4.00;;;;;;;;;;7373399;19;20039;-70
2023/05/03 12:50:30;;;;;;;9.15;4.47;;;;;;;;;;7376081;19;20718;-70
2023/05/03 12:52:55;;;;;;;9.77;3.80;;;;;;;;;;7402127;19;19998;-69
2023/05/03 12:55:21;;;;;;;6.80;3.70;;;;;;;;;;7369460;19;20039;-70
2023/05/03 12:57:46;;;;;;;9.48;3.55;;;;;;;;;;7377087;19;19999;-72
2023/05/03 13:00:12;;;;;;;7.85;3.47;;;;;;;;;;7372659;19;20037;-71
2023/05/03 13:02:37;;;;;;;7.93;3.17;;;;;;;;;;7369550;19;20010;-71
2023/05/03 13:05:03;;;;;;;11.50;4.20;;;;;;;;;;7392651;19;20443;-72
2023/05/03 13:07:29;;;;;;;8.15;3.67;;;;;;;;;;7369241;19;20696;-72
2023/05/03 13:09:54;;;;;;;6.70;3.67;;;;;;;;;;7371204;19;20018;-72
2023/05/03 13:12:21;;;;;;;6.05;3.10;;;;;;;;;;7372052;19;20159;-70
2023/05/03 13:14:50;;;;;;;8.10;3.35;;;;;;;;;;7370242;19;20449;-70
2023/05/03 13:17:17;;;;;;;7.03;3.22;;;;;;;;;;7392957;19;20023;-70
2023/05/03 13:19:46;;;;;;;6.93;3.40;;;;;;;;;;7370200;19;20432;-71
2023/05/03 13:22:12;;;;;;;9.55;3.67;;;;;;;;;;7372547;19;20002;-70
2023/05/03 13:24:37;;;;;;;9.80;3.60;;;;;;;;;;7371253;19;20041;-71
2023/05/03 13:27:04;;;;;;;8.15;3.80;;;;;;;;;;7370251;19;20011;-64
2023/05/03 13:29:29;;;;;;;9.43;3.83;;;;;;;;;;7371489;19;20035;-62
2023/05/03 13:31:55;;;;;;;8.13;2.88;;;;;;;;;;7393172;19;20046;-62
2023/05/03 13:34:20;;;;;;;8.50;3.65;;;;;;;;;;7370060;19;20006;-67
2023/05/03 13:36:46;;;;;;;7.78;3.63;;;;;;;;;;7369270;19;20398;-74
2023/05/03 13:39:11;;;;;;;7.85;3.55;;;;;;;;;;7372085;19;20006;-74
2023/05/03 13:41:39;;;;;;;5.03;3.00;;;;;;;;;;7369248;19;20006;-71
2023/05/03 13:44:05;;;;;;;9.55;3.55;;;;;;;;;;7394417;19;20393;-72
2023/05/03 13:46:30;;;;;;;10.40;3.92;;;;;;;;;;7369179;19;20002;-72
2023/05/03 13:48:55;;;;;;;7.60;3.63;;;;;;;;;;7371320;19;20065;-73
2023/05/03 13:51:21;;;;;;;12.57;3.38;;;;;;;;;;7370585;19;20080;-74
2023/05/03 13:53:46;;;;;;;10.00;3.35;;;;;;;;;;7371655;19;20015;-73
2023/05/03 13:56:12;;;;;;;8.88;3.30;;;;;;;;;;7388366;19;20019;-72
2023/05/03 13:58:38;;;;;;;7.43;3.30;;;;;;;;;;7368591;19;20018;-72
2023/05/03 14:01:04;;;;;;;6.00;3.13;;;;;;;;;;7370062;19;20743;-72
2023/05/03 14:03:31;;;;;;;6.18;3.28;;;;;;;;;;7369778;19;20480;-73
2023/05/03 14:05:56;;;;;;;8.23;3.40;;;;;;;;;;7372706;19;20500;-73
2023/05/03 14:08:22;;;;;;;8.13;3.60;;;;;;;;;;7372199;19;20015;-74
2023/05/03 14:10:47;;;;;;;6.28;2.97;;;;;;;;;;7393999;19;20005;-72
2023/05/03 14:13:12;;;;;;;8.60;3.35;;;;;;;;;;7372534;19;20022;-72
2023/05/03 14:15:44;;;;;;;8.90;4.15;;;;;;;;;;7372707;19;20017;-72
2023/05/03 14:18:09;;;;;;;7.07;3.72;;;;;;;;;;7372397;19;20017;-71
2023/05/03 14:20:35;;;;;;;9.60;3.70;;;;;;;;;;7374734;19;20007;-71
2023/05/03 14:23:01;;;;;;;9.43;3.08;;;;;;;;;;7393505;19;20507;-72
2023/05/03 14:25:26;;;;;;;8.23;3.65;;;;;;;;;;7372735;19;20007;-72
2023/05/03 14:27:53;;;;;;;9.90;4.00;;;;;;;;;;7372394;19;20359;-71
2023/05/03 14:30:18;;;;;;;9.60;3.55;;;;;;;;;;7372071;19;19999;-71
2023/05/03 14:32:43;;;;;;;6.72;3.20;;;;;;;;;;7375047;19;20016;-71
2023/05/03 14:35:09;;;;;;;5.18;2.63;;;;;;;;;;7394346;19;20006;-61
2023/05/03 14:37:35;;;;;;;9.27;3.17;;;;;;;;;;7374974;19;20008;-71